Terminal Aerodrome Forecast
Issued by NWS

Current Version | Previous Version | Graphics & Text | Print | Product List | Glossary On
Versions: 1 2 3 4 5 6 7 8 9 10 11 12 13 14 15 16 17 18 19 20 21
000
FTUS41 KRNK 211548 AAB
TAFLWB
TAF AMD
KLWB 211548Z 2116/2212 29005KT P6SM VCSH SCT015 BKN050
     FM220000 00000KT P6SM SCT110
     FM220600 00000KT 3SM BR BKN070
     FM220900 00000KT 3SM BR SCT020
     FM221100 00000KT 3SM BR BKN020=

USA.gov is the U.S. government's official web portal to all federal, state and local government web resources and services.